Relevés horaires Les Diablerets (Suisse)


Relevés horaires à Les Diablerets - Jeudi 20 Sept. 2018
Heure UTC1 Température [°C] Vent [km/h] Hum. [%] Pres.4 [hPa] Visi. [Km] Nébu. [octa] Préc.5 [mm] Cond.
2m. Res. Ros. Dir.2 Vit. Moy. Raf.3
22:00 6.4 3 3.2 SSO 18.5 -- -- 80 700 -- -- -- --
21:00 6.9 3.4 2.1 S 20.4 -- 35.2 71 700(-0.3/3h) -- -- -- --
20:00 7.3 3.9 0.9 SSO 20.4 -- -- 64 700 -- -- -- --
19:00 6.3 3.4 4.9 SO 14.8 -- -- 91 700 -- -- -- --
18:00 6.6 4.7 6.0 SO 9.3 -- 20.4 96 700(-0.5/3h) -- -- -- --
17:00 8.0 6 5.7 SO 11.1 -- -- 85 700 -- -- -- --
16:00 9.8 8.5 5.6 SSO 9.3 -- -- 75 700 -- -- -- --
15:00 9.1 7.7 6.1 SSO 9.3 -- 20.4 81 700(-0.7/3h) -- -- -- --
14:00 9.9 8.6 6.6 S 9.3 -- -- 80 700 -- -- -- --
13:00 9.8 8.9 5.4 SSO 7.4 -- -- 74 700 -- -- -- --
12:00 10.1 9.7 3.3 S 5.6 -- 20.4 63 700(-0.3/3h) -- -- -- --
11:00 9.6 8.7 3.6 S 7.4 -- -- 66 700 -- -- -- --
10:00 7.8 7.8 2.9 SSE 3.7 -- -- 71 700 -- -- -- --
09:00 7.1 7.1 1.6 S 3.7 -- 11.1 68 700(0.2/3h) -- -- -- --
08:00 5.6 5.6 0.4 S 3.7 -- -- 69 700 -- -- -- --
07:00 5.5 5.5 -0.2 OSO 1.9 -- -- 67 700 -- -- -- --
06:00 4.9 3.2 -0.4 NO 7.4 -- 14.8 68 700(0.0/3h) -- -- -- --
05:00 4.7 3.5 -0.1 O 5.6 -- -- 71 700 -- -- -- --
04:00 4.6 3.4 0.8 OSO 5.6 -- -- 76 700 -- -- -- --
03:00 4.8 4.8 -- SO 3.7 -- 9.3 -- 700(-0.6/3h) -- -- -- --
02:00 5.5 4.4 -0.5 OSO 5.6 -- -- 65 700 -- -- -- --
01:00 5.0 3.9 0.1 N 5.6 -- -- 71 700 -- -- -- --
00:00 6.1 6.1 -1.3 SO 3.7 -- 14.8 59 700(-0.4/3h) -- -- -- --

1 Coordinated Universal Time. Actuellement il est 01:00 locale et 23:00 UTC.

2 Le vent souffle depuis la direction indiquée vers la direction oposée.

3 Les rafales max. sont disponible 40 min après l'heure du relevé.

4 Pour les stations d'altitude (plus de 600m) le géopotentiel du niveau le plus proche de la pression obligatoire est indiqué.

5 Les stations disposant d'un diffuseur peuvent indiquer "trace". Cela signifie que des précipitations ont touchés le sol mais que la quantité est inférieure à 0.1 mm.

Récapitulatif de la journée
Température [°C] Vent [km/h] Ensoleillement4 [h] Precipitations totale5 [mm] Pression [Hpa]
Min1 Max.2 Moy.3 Max. Min Max.
4.5 10.6 0 35.2 0 h 0 min 0 700.0 700.0

1 Température minimale relevée entre 18:00 UTC la veille et 18:00 UTC le jour donné.

2 Température maximale relevée entre 06:00 UTC le jour donné et 06:00 UTC le lendemain.

3 Vent moyen de la journée basé sur les relevés horaires.

4 Ensoleillement en heures relevé entre 06:00 UTC la veille et 06:00 UTC le jour donné.

5 Précipitations totales tombées entre 06:00 UTC la jour donné et 06:00 UTC le lendemain.

Graphiques horaires